createdAt,value
2017-07-17T00:00:19.455Z,14.50
2017-07-17T00:02:45.991Z,15.27
2017-07-17T00:05:12.475Z,15.17
2017-07-17T00:07:38.946Z,16.93
2017-07-17T00:10:05.414Z,17.20
2017-07-17T00:12:31.892Z,17.20
2017-07-17T00:14:58.398Z,16.43
2017-07-17T00:17:24.882Z,16.97
2017-07-17T00:19:52.127Z,16.90
2017-07-17T00:22:18.644Z,16.50
2017-07-17T00:24:45.147Z,16.67
2017-07-17T00:27:11.627Z,17.67
2017-07-17T00:29:38.886Z,16.27
2017-07-17T00:32:05.352Z,17.80
2017-07-17T00:34:31.811Z,15.00
2017-07-17T00:36:58.339Z,16.27
2017-07-17T00:39:24.854Z,15.27
2017-07-17T00:41:51.341Z,16.90
2017-07-17T00:44:17.818Z,16.80
2017-07-17T00:46:44.349Z,16.53
2017-07-17T00:49:10.802Z,16.90
2017-07-17T00:51:38.082Z,16.80
2017-07-17T00:54:04.530Z,16.37
2017-07-17T00:56:31.008Z,16.57
2017-07-17T00:58:57.471Z,15.00
2017-07-17T01:01:23.932Z,17.10
2017-07-17T01:03:50.410Z,15.80
2017-07-17T01:06:16.872Z,15.20
2017-07-17T01:08:43.330Z,17.07
2017-07-17T01:11:10.520Z,15.87
2017-07-17T01:13:37.054Z,16.40
2017-07-17T01:16:03.504Z,16.93
2017-07-17T01:18:30.011Z,16.77
2017-07-17T01:20:56.478Z,16.47
2017-07-17T01:23:22.945Z,17.43
2017-07-17T01:25:49.408Z,15.70
2017-07-17T01:28:15.858Z,18.67
2017-07-17T01:30:42.342Z,16.63
2017-07-17T01:33:08.791Z,18.30
2017-07-17T01:35:35.993Z,18.50
2017-07-17T01:38:02.463Z,20.00
2017-07-17T01:40:29.698Z,19.17
2017-07-17T01:42:56.159Z,18.90
2017-07-17T01:45:23.046Z,19.00
2017-07-17T01:47:49.665Z,18.10
2017-07-17T01:50:16.149Z,18.97
2017-07-17T01:52:42.663Z,19.00
2017-07-17T01:55:09.168Z,17.07
2017-07-17T01:57:35.670Z,19.00
2017-07-17T02:00:02.166Z,17.80
2017-07-17T02:02:28.695Z,19.00
2017-07-17T02:04:55.176Z,19.07
2017-07-17T02:07:21.683Z,19.97
2017-07-17T02:09:48.138Z,19.67
2017-07-17T02:12:14.626Z,19.70
2017-07-17T02:14:41.103Z,19.90
2017-07-17T02:17:07.591Z,17.83
2017-07-17T02:19:34.099Z,17.87
2017-07-17T02:22:00.563Z,20.10
2017-07-17T02:24:27.811Z,19.10
2017-07-17T02:26:54.275Z,21.00
2017-07-17T02:29:20.786Z,18.90
2017-07-17T02:31:47.993Z,19.97
2017-07-17T02:34:14.534Z,20.07
2017-07-17T02:36:41.010Z,20.30
2017-07-17T02:39:07.478Z,21.47
2017-07-17T02:41:33.957Z,20.43
2017-07-17T02:44:00.466Z,19.27
2017-07-17T02:46:26.931Z,20.10
2017-07-17T02:48:53.530Z,18.13
2017-07-17T02:51:19.966Z,20.20
2017-07-17T02:53:46.418Z,20.90
2017-07-17T02:56:12.887Z,20.37
2017-07-17T02:58:39.325Z,22.07
2017-07-17T03:01:06.532Z,20.93
2017-07-17T03:03:32.995Z,20.23
2017-07-17T03:05:59.463Z,20.70
2017-07-17T03:08:25.929Z,19.13
2017-07-17T03:10:52.399Z,19.90
2017-07-17T03:13:18.873Z,18.70
2017-07-17T03:15:45.355Z,19.80
2017-07-17T03:18:11.826Z,20.60
2017-07-17T03:20:38.353Z,19.87
2017-07-17T03:23:04.865Z,17.83
2017-07-17T03:25:31.369Z,18.03
2017-07-17T03:27:57.858Z,17.50
2017-07-17T03:30:24.336Z,18.90
2017-07-17T03:32:50.834Z,19.57
2017-07-17T03:35:17.302Z,18.13
2017-07-17T03:37:44.520Z,19.03
2017-07-17T03:40:11.037Z,16.97
2017-07-17T03:42:37.520Z,15.83
2017-07-17T03:45:04.768Z,14.33
2017-07-17T03:47:31.243Z,17.73
2017-07-17T03:49:57.783Z,15.80
2017-07-17T03:52:24.271Z,16.30
2017-07-17T03:54:50.806Z,16.00
2017-07-17T03:57:18.043Z,16.93
2017-07-17T03:59:45.307Z,16.00
2017-07-17T04:02:11.766Z,12.53
2017-07-17T04:04:38.275Z,11.07
2017-07-17T04:07:05.479Z,10.70
2017-07-17T04:09:31.950Z,10.53
2017-07-17T04:11:58.408Z,9.37
2017-07-17T04:14:24.939Z,9.07
2017-07-17T04:16:51.431Z,9.63
2017-07-17T04:19:17.923Z,8.87
2017-07-17T04:21:44.424Z,8.97
2017-07-17T04:24:11.646Z,9.27
2017-07-17T04:26:38.122Z,9.73
2017-07-17T04:29:04.576Z,9.20
2017-07-17T04:31:31.066Z,5.97
2017-07-17T04:33:57.538Z,7.77
2017-07-17T04:36:23.808Z,6.50
2017-07-17T04:38:50.077Z,6.00
2017-07-17T04:41:17.084Z,5.40
2017-07-17T04:43:43.376Z,4.90
2017-07-17T04:46:09.627Z,5.13
2017-07-17T04:48:35.934Z,5.33
2017-07-17T04:51:02.203Z,5.10
2017-07-17T04:53:28.470Z,4.73
2017-07-17T04:55:54.738Z,4.90
2017-07-17T04:58:21.004Z,4.80
2017-07-17T05:00:47.274Z,5.30
2017-07-17T05:03:13.542Z,4.23
2017-07-17T05:05:39.823Z,3.70
2017-07-17T05:08:06.131Z,4.10
2017-07-17T05:10:33.226Z,3.80
2017-07-17T05:12:59.536Z,4.03
2017-07-17T05:15:25.791Z,4.60
2017-07-17T05:17:52.065Z,4.70
2017-07-17T05:20:19.114Z,7.27
2017-07-17T05:22:45.394Z,6.20
2017-07-17T05:25:11.659Z,7.70
2017-07-17T05:27:38.820Z,8.87
2017-07-17T05:30:05.118Z,9.00
2017-07-17T05:32:31.415Z,10.00
2017-07-17T05:37:30.689Z,9.63
2017-07-17T05:39:56.997Z,10.20
2017-07-17T05:42:23.301Z,12.13
2017-07-17T05:44:49.592Z,12.47
2017-07-17T05:47:15.858Z,12.10
2017-07-17T05:49:42.151Z,12.20
2017-07-17T05:52:08.406Z,11.37
2017-07-17T05:54:34.732Z,14.00
2017-07-17T05:57:00.978Z,13.40
2017-07-17T05:59:27.243Z,12.27
2017-07-17T06:01:54.271Z,15.50
2017-07-17T06:04:20.538Z,14.50
2017-07-17T06:06:46.785Z,13.73
2017-07-17T06:09:13.046Z,14.93
2017-07-17T06:11:40.490Z,14.80
2017-07-17T06:14:06.795Z,15.23
2017-07-17T06:16:33.075Z,15.93
2017-07-17T06:18:59.335Z,17.33
2017-07-17T06:21:25.653Z,18.17
2017-07-17T06:23:51.922Z,17.30
2017-07-17T06:26:18.158Z,19.00
2017-07-17T06:28:44.415Z,17.47
2017-07-17T06:31:11.414Z,18.73
2017-07-17T06:33:37.662Z,17.90
2017-07-17T06:36:03.919Z,18.63
2017-07-17T06:38:31.110Z,18.20
2017-07-17T06:40:57.350Z,17.40
2017-07-17T06:43:23.635Z,17.83
2017-07-17T06:45:49.882Z,17.47
2017-07-17T06:48:16.143Z,20.10
2017-07-17T06:50:42.388Z,18.27
2017-07-17T06:53:08.664Z,19.43
2017-07-17T06:55:34.907Z,22.40
2017-07-17T06:58:01.159Z,21.30
2017-07-17T07:00:27.431Z,22.77
2017-07-17T07:02:53.702Z,26.30
2017-07-17T07:05:20.030Z,23.67
2017-07-17T07:07:46.280Z,25.33
2017-07-17T07:10:12.525Z,24.10
2017-07-17T07:12:38.797Z,21.77
2017-07-17T07:15:05.056Z,21.57
2017-07-17T07:17:31.308Z,21.27
2017-07-17T07:19:58.302Z,23.57
2017-07-17T07:22:24.580Z,20.80
2017-07-17T07:24:51.559Z,22.63
2017-07-17T07:27:17.846Z,22.00
2017-07-17T07:29:44.097Z,20.57
2017-07-17T07:32:10.427Z,22.80
2017-07-17T07:34:36.710Z,20.80
2017-07-17T07:37:02.982Z,19.13
2017-07-17T07:39:29.250Z,16.30
2017-07-17T07:41:55.497Z,15.97
2017-07-17T07:44:21.900Z,16.33
2017-07-17T07:46:48.198Z,15.60
2017-07-17T07:49:14.462Z,16.80
2017-07-17T07:51:40.794Z,17.43
2017-07-17T07:54:07.075Z,17.13
2017-07-17T07:56:34.095Z,17.53
2017-07-17T07:59:00.525Z,16.50
2017-07-17T08:01:26.779Z,14.70
2017-07-17T08:03:53.803Z,15.30
2017-07-17T08:06:20.099Z,16.10
2017-07-17T08:08:46.355Z,13.70
2017-07-17T08:11:12.630Z,11.90
2017-07-17T08:13:38.895Z,12.13
2017-07-17T08:16:05.158Z,11.60
2017-07-17T08:18:32.166Z,11.10
2017-07-17T08:20:58.427Z,9.90
2017-07-17T08:23:25.458Z,9.57
2017-07-17T08:25:51.815Z,10.47
2017-07-17T08:28:18.092Z,10.63
2017-07-17T08:30:44.391Z,9.77
2017-07-17T08:33:10.669Z,9.70
2017-07-17T08:35:36.960Z,9.37
2017-07-17T08:38:03.231Z,8.90
2017-07-17T08:40:29.495Z,9.43
2017-07-17T08:42:55.785Z,11.33
2017-07-17T08:45:22.070Z,10.83
2017-07-17T08:47:48.322Z,9.80
2017-07-17T08:50:14.587Z,10.87
2017-07-17T08:52:41.570Z,12.20
2017-07-17T08:55:07.843Z,10.77
2017-07-17T08:57:34.086Z,11.90
2017-07-17T09:00:01.311Z,10.30
2017-07-17T09:02:27.777Z,11.13
2017-07-17T09:04:54.282Z,11.70
2017-07-17T09:07:20.786Z,11.33
2017-07-17T09:09:47.214Z,12.00
2017-07-17T09:12:14.090Z,12.03
2017-07-17T09:14:41.316Z,11.30
2017-07-17T09:17:07.803Z,11.17
2017-07-17T09:19:34.313Z,11.20
2017-07-17T09:22:00.799Z,12.57
2017-07-17T09:24:27.295Z,12.10
2017-07-17T09:26:53.759Z,12.97
2017-07-17T09:29:20.246Z,11.63
2017-07-17T09:31:46.774Z,12.20
2017-07-17T09:34:13.998Z,12.17
2017-07-17T09:36:40.474Z,11.00
2017-07-17T09:39:06.995Z,11.60
2017-07-17T09:41:33.491Z,14.10
2017-07-17T09:44:00.004Z,15.63
2017-07-17T09:46:26.492Z,17.20
2017-07-17T09:48:52.989Z,19.80
2017-07-17T09:51:19.459Z,18.33
2017-07-17T09:53:45.993Z,16.30
2017-07-17T09:56:12.526Z,12.83
2017-07-17T09:58:38.999Z,11.60
2017-07-17T10:01:05.536Z,12.50
2017-07-17T10:03:32.033Z,12.80
2017-07-17T10:05:59.246Z,12.20
2017-07-17T10:08:25.755Z,10.00
2017-07-17T10:10:52.257Z,10.03
2017-07-17T10:13:18.759Z,10.10
2017-07-17T10:15:45.329Z,9.80
2017-07-17T10:18:11.792Z,9.53
2017-07-17T10:20:38.301Z,9.37
2017-07-17T10:23:04.782Z,10.47
2017-07-17T10:25:31.315Z,10.93
2017-07-17T10:27:57.815Z,11.47
2017-07-17T10:30:24.346Z,11.20
2017-07-17T10:32:50.817Z,11.60
2017-07-17T10:35:17.279Z,9.20
2017-07-17T10:37:43.695Z,8.10
2017-07-17T10:40:10.249Z,9.33
2017-07-17T10:42:37.474Z,6.87
2017-07-17T10:45:03.972Z,8.50
2017-07-17T10:47:30.482Z,8.00
2017-07-17T10:49:57.003Z,8.07
2017-07-17T10:52:23.518Z,7.50
2017-07-17T10:54:50.026Z,7.37
2017-07-17T10:57:23.576Z,7.07
2017-07-17T10:59:50.085Z,6.10
2017-07-17T11:02:16.673Z,5.70
2017-07-17T11:04:43.189Z,6.73
2017-07-17T11:07:09.798Z,8.00
2017-07-17T11:09:36.300Z,7.77
2017-07-17T11:12:02.819Z,4.30
2017-07-17T11:14:29.336Z,4.00
2017-07-17T11:16:55.800Z,4.63
2017-07-17T11:19:22.392Z,4.40
2017-07-17T11:21:49.087Z,4.10
2017-07-17T11:24:15.650Z,3.00
2017-07-17T11:26:42.117Z,3.73
2017-07-17T11:29:08.650Z,3.50
2017-07-17T11:31:35.210Z,3.80
2017-07-17T11:34:01.698Z,3.80
2017-07-17T11:36:28.213Z,3.37
2017-07-17T11:38:54.702Z,3.30
2017-07-17T11:41:21.188Z,3.70
2017-07-17T11:43:47.695Z,2.90
2017-07-17T11:56:23.255Z,3.30
2017-07-17T11:58:49.760Z,3.03
2017-07-17T12:01:16.980Z,3.73
2017-07-17T12:03:43.442Z,3.63
2017-07-17T12:06:10.669Z,3.00
2017-07-17T12:08:37.237Z,4.00
2017-07-17T12:11:04.411Z,3.20
2017-07-17T12:13:30.907Z,3.40
2017-07-17T12:15:57.360Z,2.60
2017-07-17T12:18:23.838Z,2.87
2017-07-17T12:20:50.368Z,2.87
2017-07-17T12:23:16.889Z,2.60
2017-07-17T12:25:43.352Z,2.10
2017-07-17T12:28:09.841Z,1.83
2017-07-17T12:30:36.347Z,2.50
2017-07-17T12:33:03.661Z,1.80
2017-07-17T12:35:30.146Z,2.20
2017-07-17T12:37:56.717Z,2.60
2017-07-17T12:40:23.254Z,2.17
2017-07-17T12:42:49.709Z,2.90
2017-07-17T12:45:16.961Z,2.50
2017-07-17T12:47:44.165Z,2.97
2017-07-17T12:50:10.615Z,2.23
2017-07-17T12:52:37.065Z,2.47
2017-07-17T12:55:03.563Z,2.93
2017-07-17T12:57:30.042Z,2.90
2017-07-17T12:59:56.515Z,2.63
2017-07-17T13:02:23.709Z,2.00
2017-07-17T13:04:50.174Z,2.00
2017-07-17T13:07:16.657Z,1.90
2017-07-17T13:09:50.086Z,2.50
2017-07-17T13:12:17.283Z,1.97
2017-07-17T13:14:43.525Z,2.20
2017-07-17T13:17:09.982Z,2.57
2017-07-17T13:19:37.211Z,2.90
2017-07-17T13:22:03.672Z,2.30
2017-07-17T13:24:30.147Z,2.50
2017-07-17T13:26:56.643Z,2.10
2017-07-17T13:29:23.115Z,2.00
2017-07-17T13:31:49.578Z,2.37
2017-07-17T13:34:16.070Z,2.03
2017-07-17T13:36:42.537Z,2.07
2017-07-17T13:39:09.068Z,2.67
2017-07-17T13:41:35.514Z,2.40
2017-07-17T13:44:01.991Z,2.20
2017-07-17T13:46:28.510Z,2.20
2017-07-17T13:48:54.977Z,1.90
2017-07-17T13:51:21.510Z,2.40
2017-07-17T13:53:47.974Z,2.10
2017-07-17T13:56:14.465Z,2.30
2017-07-17T13:58:40.999Z,1.73
2017-07-17T14:01:07.506Z,2.20
2017-07-17T14:03:34.756Z,1.70
2017-07-17T14:06:01.247Z,1.63
2017-07-17T14:08:27.762Z,1.97
2017-07-17T14:10:54.229Z,1.77
2017-07-17T14:13:20.694Z,1.63
2017-07-17T14:15:47.229Z,1.70
2017-07-17T14:18:13.737Z,1.93
2017-07-17T14:20:40.205Z,1.57
2017-07-17T14:23:06.657Z,2.10
2017-07-17T14:25:33.130Z,2.00
2017-07-17T14:27:59.640Z,1.67
2017-07-17T14:30:26.145Z,1.90
2017-07-17T14:32:52.621Z,2.23
2017-07-17T14:35:19.147Z,2.00
2017-07-17T14:37:45.626Z,1.90
2017-07-17T14:40:12.122Z,1.73
2017-07-17T14:42:38.573Z,2.20
2017-07-17T14:45:05.073Z,1.80
2017-07-17T14:47:31.525Z,1.80
2017-07-17T14:49:57.983Z,2.27
2017-07-17T14:52:24.492Z,2.20
2017-07-17T14:54:50.952Z,1.83
2017-07-17T14:57:17.422Z,1.53
2017-07-17T14:59:43.865Z,2.30
2017-07-17T15:02:10.351Z,1.80
2017-07-17T15:04:36.809Z,1.93
2017-07-17T15:07:04.017Z,2.07
2017-07-17T15:09:30.475Z,2.37
2017-07-17T15:11:57.673Z,1.77
2017-07-17T15:14:24.110Z,1.77
2017-07-17T15:16:50.593Z,2.23
2017-07-17T15:19:17.074Z,2.40
2017-07-17T15:21:43.560Z,2.10
2017-07-17T15:24:10.787Z,2.53
2017-07-17T15:26:37.250Z,1.83
2017-07-17T15:29:03.724Z,2.00
2017-07-17T15:31:30.190Z,2.03
2017-07-17T15:33:56.650Z,2.10
2017-07-17T15:36:23.127Z,1.50
2017-07-17T15:38:49.605Z,1.90
2017-07-17T15:41:16.069Z,1.57
2017-07-17T15:43:42.521Z,1.60
2017-07-17T15:46:09.054Z,1.70
2017-07-17T15:48:35.529Z,1.53
2017-07-17T15:51:02.802Z,2.03
2017-07-17T15:53:29.305Z,1.40
2017-07-17T15:55:55.816Z,1.83
2017-07-17T15:58:22.295Z,1.80
2017-07-17T16:00:49.547Z,1.33
2017-07-17T16:03:16.069Z,2.00
2017-07-17T16:05:42.554Z,1.50
2017-07-17T16:08:09.051Z,2.00
2017-07-17T16:10:35.526Z,1.60
2017-07-17T16:13:02.031Z,2.40
2017-07-17T16:15:28.523Z,1.90
2017-07-17T16:17:55.882Z,1.30
2017-07-17T16:20:22.459Z,1.33
2017-07-17T16:22:49.037Z,1.27
2017-07-17T16:25:16.259Z,1.73
2017-07-17T16:27:42.745Z,1.13
2017-07-17T16:30:09.959Z,1.43
2017-07-17T16:32:36.462Z,1.33
2017-07-17T16:35:02.952Z,1.50
2017-07-17T16:37:29.420Z,1.70
2017-07-17T16:39:55.903Z,2.00
2017-07-17T16:42:22.430Z,1.30
2017-07-17T16:44:48.942Z,1.40
2017-07-17T16:47:15.421Z,1.20
2017-07-17T16:49:41.914Z,1.30
2017-07-17T16:52:08.399Z,1.10
2017-07-17T16:54:34.898Z,1.20
2017-07-17T16:57:01.358Z,1.50
2017-07-17T16:59:28.613Z,1.30
2017-07-17T17:01:55.836Z,1.03
2017-07-17T17:04:22.455Z,0.90
2017-07-17T17:06:48.936Z,1.50
2017-07-17T17:09:16.155Z,1.50
2017-07-17T17:11:42.643Z,2.07
2017-07-17T17:14:09.153Z,1.23
2017-07-17T17:16:35.638Z,1.20
2017-07-17T17:19:02.120Z,1.33
2017-07-17T17:21:28.648Z,1.30
2017-07-17T17:23:55.129Z,1.00
2017-07-17T17:26:21.638Z,1.10
2017-07-17T17:28:48.205Z,1.30
2017-07-17T17:31:14.700Z,1.10
2017-07-17T17:33:41.181Z,1.30
2017-07-17T17:36:07.649Z,1.20
2017-07-17T17:38:34.850Z,1.30
2017-07-17T17:41:01.354Z,1.50
2017-07-17T17:43:27.876Z,1.10
2017-07-17T17:45:54.347Z,1.00
2017-07-17T17:48:20.847Z,1.27
2017-07-17T17:50:47.338Z,1.10
2017-07-17T17:53:13.842Z,2.03
2017-07-17T17:55:40.310Z,0.97
2017-07-17T17:58:07.528Z,1.20
2017-07-17T18:00:34.026Z,1.10
2017-07-17T18:03:00.462Z,1.13
2017-07-17T18:05:26.977Z,1.30
2017-07-17T18:07:54.160Z,2.67
2017-07-17T18:10:20.664Z,1.20
2017-07-17T18:12:47.870Z,1.10
2017-07-17T18:15:14.414Z,1.40
2017-07-17T18:17:40.923Z,1.10
2017-07-17T18:20:07.379Z,0.97
2017-07-17T18:22:34.686Z,0.93
2017-07-17T18:25:01.183Z,1.27
2017-07-17T18:27:27.680Z,1.47
2017-07-17T18:29:54.157Z,1.73
2017-07-17T18:32:21.393Z,1.53
2017-07-17T18:34:47.881Z,1.40
2017-07-17T18:37:14.358Z,1.57
2017-07-17T18:39:40.875Z,1.93
2017-07-17T18:42:07.383Z,1.33
2017-07-17T18:44:34.049Z,1.70
2017-07-17T18:47:00.533Z,1.63
2017-07-17T18:49:27.002Z,1.53
2017-07-17T18:51:53.467Z,1.40
2017-07-17T18:54:19.995Z,1.73
2017-07-17T18:56:46.451Z,1.30
2017-07-17T18:59:12.954Z,1.50
2017-07-17T19:01:40.174Z,1.47
2017-07-17T19:04:06.666Z,1.70
2017-07-17T19:06:33.154Z,2.17
2017-07-17T19:08:59.654Z,2.17
2017-07-17T19:11:26.158Z,2.30
2017-07-17T19:13:52.649Z,1.70
2017-07-17T19:16:19.116Z,2.07
2017-07-17T19:18:46.318Z,1.50
2017-07-17T19:21:12.806Z,1.60
2017-07-17T19:23:40.001Z,1.50
2017-07-17T19:26:06.483Z,1.80
2017-07-17T19:28:33.720Z,1.80
2017-07-17T19:31:00.967Z,1.50
2017-07-17T19:33:27.430Z,1.57
2017-07-17T19:35:54.658Z,1.50
2017-07-17T19:38:21.893Z,1.80
2017-07-17T19:40:48.435Z,1.70
2017-07-17T19:43:14.906Z,1.60
2017-07-17T19:45:41.414Z,1.80
2017-07-17T19:48:08.650Z,1.40
2017-07-17T19:50:35.152Z,1.50
2017-07-17T19:53:02.462Z,1.60
2017-07-17T19:55:28.950Z,1.80
2017-07-17T19:57:55.434Z,1.60
2017-07-17T20:00:21.910Z,1.60
2017-07-17T20:02:48.384Z,1.93
2017-07-17T20:05:14.898Z,1.70
2017-07-17T20:07:42.161Z,1.50
2017-07-17T20:10:08.639Z,1.60
2017-07-17T20:12:35.174Z,1.63
2017-07-17T20:15:01.662Z,2.20
2017-07-17T20:17:28.138Z,2.17
2017-07-17T20:19:54.673Z,1.97
2017-07-17T20:22:21.185Z,2.33
2017-07-17T20:24:48.397Z,1.97
2017-07-17T20:27:14.929Z,2.23
2017-07-17T20:29:41.438Z,2.00
2017-07-17T20:32:07.950Z,2.00
2017-07-17T20:34:34.473Z,3.00
2017-07-17T20:37:00.960Z,2.30
2017-07-17T20:39:27.415Z,2.63
2017-07-17T20:41:53.914Z,2.47
2017-07-17T20:44:20.390Z,2.63
2017-07-17T20:46:46.883Z,2.93
2017-07-17T20:49:14.122Z,2.60
2017-07-17T20:51:40.617Z,2.50
2017-07-17T20:54:07.102Z,2.67
2017-07-17T20:56:33.575Z,2.50
2017-07-17T20:59:00.765Z,2.37
2017-07-17T21:01:27.226Z,2.27
2017-07-17T21:03:53.674Z,3.07
2017-07-17T21:06:20.156Z,2.73
2017-07-17T21:08:46.656Z,2.90
2017-07-17T21:11:13.857Z,3.33
2017-07-17T21:13:40.416Z,2.53
2017-07-17T21:16:07.637Z,2.70
2017-07-17T21:18:34.103Z,3.00
2017-07-17T21:21:01.359Z,2.67
2017-07-17T21:23:27.835Z,2.90
2017-07-17T21:25:54.293Z,2.40
2017-07-17T21:28:20.758Z,2.37
2017-07-17T21:30:47.213Z,2.40
2017-07-17T21:33:13.677Z,1.80
2017-07-17T21:35:40.122Z,2.10
2017-07-17T21:38:06.587Z,2.23
2017-07-17T21:40:33.803Z,2.37
2017-07-17T21:43:00.289Z,2.60
2017-07-17T21:45:26.821Z,2.50
2017-07-17T21:47:54.037Z,2.03
2017-07-17T21:50:20.557Z,1.90
2017-07-17T21:52:47.046Z,2.00
2017-07-17T21:55:13.551Z,2.73
2017-07-17T21:57:40.038Z,2.30
2017-07-17T22:00:06.507Z,2.20
2017-07-17T22:02:32.989Z,3.13
2017-07-17T22:04:59.471Z,2.63
2017-07-17T22:07:25.929Z,2.37
2017-07-17T22:09:52.452Z,2.50
2017-07-17T22:12:18.965Z,2.40
2017-07-17T22:14:45.427Z,2.20
2017-07-17T22:17:11.959Z,2.70
2017-07-17T22:19:38.445Z,2.50
2017-07-17T22:22:04.954Z,2.23
2017-07-17T22:24:32.147Z,2.50
2017-07-17T22:26:58.621Z,2.67
2017-07-17T22:29:25.065Z,1.97
2017-07-17T22:31:52.262Z,2.77
2017-07-17T22:34:18.715Z,2.53
2017-07-17T22:36:45.929Z,2.90
2017-07-17T22:39:12.381Z,2.40
2017-07-17T22:41:38.843Z,2.77
2017-07-17T22:44:06.077Z,2.70
2017-07-17T22:46:32.560Z,2.63
2017-07-17T22:48:59.058Z,3.10
2017-07-17T22:51:25.542Z,2.43
2017-07-17T22:53:52.051Z,2.90
2017-07-17T22:56:18.521Z,2.70
2017-07-17T22:58:45.033Z,2.60
2017-07-17T23:01:11.474Z,2.50
2017-07-17T23:03:37.931Z,3.37
2017-07-17T23:06:04.400Z,3.10
2017-07-17T23:08:30.850Z,2.73
2017-07-17T23:10:57.370Z,3.23
2017-07-17T23:13:23.833Z,3.50
2017-07-17T23:15:50.303Z,2.80
2017-07-17T23:18:16.742Z,2.63
2017-07-17T23:20:43.219Z,3.00
2017-07-17T23:23:09.656Z,3.30
2017-07-17T23:25:36.077Z,3.60
2017-07-17T23:28:02.513Z,3.30
2017-07-17T23:30:29.001Z,2.83
2017-07-17T23:32:55.450Z,3.40
2017-07-17T23:35:21.977Z,2.87
2017-07-17T23:37:49.161Z,3.33
2017-07-17T23:40:15.598Z,3.10
2017-07-17T23:42:42.078Z,3.87
2017-07-17T23:45:08.562Z,3.30
2017-07-17T23:47:35.025Z,3.90
2017-07-17T23:50:01.462Z,3.10
2017-07-17T23:52:27.914Z,3.10
2017-07-17T23:54:54.365Z,3.90
2017-07-17T23:57:20.846Z,3.23
2017-07-17T23:59:47.278Z,3.67
